createdAt,value
2019-02-24T00:00:36.404Z,14.50
2019-02-24T00:03:02.735Z,11.75
2019-02-24T00:05:29.001Z,12.10
2019-02-24T00:07:55.202Z,12.00
2019-02-24T00:10:21.486Z,12.90
2019-02-24T00:12:48.052Z,11.53
2019-02-24T00:15:14.271Z,11.68
2019-02-24T00:17:40.498Z,11.48
2019-02-24T00:20:07.222Z,12.15
2019-02-24T00:22:33.482Z,11.80
2019-02-24T00:24:59.695Z,12.18
2019-02-24T00:27:25.920Z,12.90
2019-02-24T00:29:52.166Z,11.70
2019-02-24T00:32:18.699Z,12.65
2019-02-24T00:34:44.942Z,12.35
2019-02-24T00:37:11.150Z,12.18
2019-02-24T00:39:37.686Z,12.43
2019-02-24T00:42:03.922Z,13.13
2019-02-24T00:44:30.138Z,13.72
2019-02-24T00:46:56.805Z,11.43
2019-02-24T00:49:23.030Z,13.38
2019-02-24T00:51:49.240Z,12.37
2019-02-24T00:54:15.464Z,12.98
2019-02-24T00:56:41.711Z,13.50
2019-02-24T00:59:07.933Z,14.70
2019-02-24T01:01:34.156Z,13.43
2019-02-24T01:04:00.371Z,12.45
2019-02-24T01:06:26.927Z,13.93
2019-02-24T01:08:53.247Z,13.22
2019-02-24T01:11:19.475Z,13.65
2019-02-24T01:13:45.694Z,13.75
2019-02-24T01:16:11.939Z,13.10
2019-02-24T01:18:38.178Z,13.90
2019-02-24T01:21:04.714Z,13.35
2019-02-24T01:23:30.935Z,13.32
2019-02-24T01:25:57.152Z,13.68
2019-02-24T01:28:25.497Z,14.50
2019-02-24T01:30:51.749Z,15.43
2019-02-24T01:33:18.002Z,14.33
2019-02-24T01:35:44.224Z,14.28
2019-02-24T01:38:10.475Z,15.05
2019-02-24T01:40:36.696Z,15.72
2019-02-24T01:43:03.057Z,14.85
2019-02-24T01:45:29.322Z,14.15
2019-02-24T01:47:55.561Z,15.40
2019-02-24T01:50:21.796Z,14.60
2019-02-24T01:52:48.012Z,15.43
2019-02-24T01:55:14.597Z,14.70
2019-02-24T01:57:40.818Z,13.85
2019-02-24T02:00:08.976Z,14.53
2019-02-24T02:02:35.494Z,16.23
2019-02-24T02:05:02.475Z,14.70
2019-02-24T02:07:28.819Z,14.78
2019-02-24T02:09:55.043Z,16.12
2019-02-24T02:12:21.293Z,13.80
2019-02-24T02:14:47.546Z,15.13
2019-02-24T02:17:13.770Z,14.30
2019-02-24T02:19:40.342Z,15.48
2019-02-24T02:22:06.583Z,14.20
2019-02-24T02:24:33.130Z,17.32
2019-02-24T02:26:59.464Z,15.03
2019-02-24T02:29:25.687Z,15.20
2019-02-24T02:31:52.127Z,14.80
2019-02-24T02:34:18.355Z,15.80
2019-02-24T02:36:44.580Z,16.10
2019-02-24T02:39:10.923Z,16.20
2019-02-24T02:41:38.966Z,15.10
2019-02-24T02:44:05.492Z,16.40
2019-02-24T02:46:31.735Z,14.73
2019-02-24T02:48:57.947Z,15.85
2019-02-24T02:51:24.305Z,15.13
2019-02-24T02:53:50.542Z,16.50
2019-02-24T02:56:16.764Z,15.03
2019-02-24T02:58:43.395Z,16.35
2019-02-24T03:01:09.635Z,16.62
2019-02-24T03:03:35.977Z,15.03
2019-02-24T03:06:07.030Z,16.95
2019-02-24T03:08:50.451Z,15.43
2019-02-24T03:11:17.063Z,15.00
2019-02-24T03:13:43.384Z,15.78
2019-02-24T03:16:09.630Z,16.35
2019-02-24T03:18:36.474Z,15.83
2019-02-24T03:21:02.680Z,16.05
2019-02-24T03:23:29.227Z,15.93
2019-02-24T03:25:55.471Z,15.83
2019-02-24T03:28:21.726Z,16.48
2019-02-24T03:30:47.954Z,15.75
2019-02-24T03:33:14.175Z,15.70
2019-02-24T03:35:40.416Z,14.75
2019-02-24T03:38:07.031Z,14.53
2019-02-24T03:40:33.483Z,15.30
2019-02-24T03:42:59.747Z,15.55
2019-02-24T03:45:25.967Z,16.12
2019-02-24T03:47:52.251Z,15.15
2019-02-24T03:50:18.872Z,14.33
2019-02-24T03:52:45.123Z,16.48
2019-02-24T03:55:11.346Z,15.60
2019-02-24T03:57:37.562Z,15.65
2019-02-24T04:00:05.291Z,15.20
2019-02-24T04:02:31.511Z,15.08
2019-02-24T04:04:57.769Z,16.32
2019-02-24T04:07:23.970Z,17.00
2019-02-24T04:09:50.184Z,15.85
2019-02-24T04:12:16.455Z,15.85
2019-02-24T04:14:42.670Z,16.40
2019-02-24T04:17:08.910Z,15.48
2019-02-24T04:19:35.137Z,16.00
2019-02-24T04:22:01.379Z,15.95
2019-02-24T04:24:27.591Z,16.20
2019-02-24T04:26:53.832Z,15.75
2019-02-24T04:29:24.773Z,15.32
2019-02-24T04:31:48.085Z,15.85
2019-02-24T04:34:14.304Z,16.20
2019-02-24T04:36:40.908Z,15.75
2019-02-24T04:39:07.144Z,15.50
2019-02-24T04:41:33.366Z,14.85
2019-02-24T04:43:59.593Z,16.75
2019-02-24T04:46:25.829Z,15.23
2019-02-24T04:48:52.079Z,15.60
2019-02-24T04:51:18.390Z,15.70
2019-02-24T04:53:44.913Z,16.30
2019-02-24T04:56:11.127Z,17.40
2019-02-24T04:58:37.347Z,15.28
2019-02-24T05:01:03.589Z,16.62
2019-02-24T05:03:29.802Z,15.78
2019-02-24T05:05:56.055Z,16.73
2019-02-24T05:08:22.287Z,17.32
2019-02-24T05:10:48.503Z,18.20
2019-02-24T05:13:14.842Z,16.07
2019-02-24T05:15:41.052Z,17.27
2019-02-24T05:18:07.309Z,15.80
2019-02-24T05:20:33.530Z,16.93
2019-02-24T05:22:59.741Z,17.25
2019-02-24T05:25:25.998Z,18.10
2019-02-24T05:27:52.232Z,16.15
2019-02-24T05:30:18.491Z,16.25
2019-02-24T05:32:44.783Z,17.10
2019-02-24T05:35:11.074Z,16.42
2019-02-24T05:37:37.328Z,16.57
2019-02-24T05:40:04.530Z,17.20
2019-02-24T05:42:30.791Z,18.10
2019-02-24T05:44:56.999Z,16.77
2019-02-24T05:47:23.621Z,18.12
2019-02-24T05:49:49.853Z,17.70
2019-02-24T05:52:16.066Z,17.87
2019-02-24T05:54:42.309Z,17.55
2019-02-24T05:57:08.843Z,17.95
2019-02-24T05:59:35.046Z,16.48
2019-02-24T06:02:01.283Z,17.30
2019-02-24T06:04:27.500Z,17.85
2019-02-24T06:06:53.745Z,17.20
2019-02-24T06:09:19.958Z,18.60
2019-02-24T06:11:46.520Z,18.25
2019-02-24T06:14:13.048Z,17.07
2019-02-24T06:16:39.578Z,17.62
2019-02-24T06:19:05.827Z,18.37
2019-02-24T06:21:32.031Z,18.10
2019-02-24T06:23:58.242Z,18.57
2019-02-24T06:26:24.471Z,18.90
2019-02-24T06:28:51.039Z,18.30
2019-02-24T06:31:17.289Z,18.32
2019-02-24T06:33:43.607Z,18.20
2019-02-24T06:36:09.814Z,19.10
2019-02-24T06:38:36.057Z,17.92
2019-02-24T06:41:02.277Z,17.55
2019-02-24T06:43:28.994Z,17.55
2019-02-24T06:45:55.253Z,18.20
2019-02-24T06:48:21.491Z,18.50
2019-02-24T06:50:58.251Z,19.42
2019-02-24T06:53:25.003Z,17.90
2019-02-24T06:55:51.211Z,18.40
2019-02-24T06:58:18.542Z,18.65
2019-02-24T07:00:44.899Z,18.80
2019-02-24T07:03:11.454Z,19.52
2019-02-24T07:05:37.658Z,18.10
2019-02-24T07:08:03.880Z,18.17
2019-02-24T07:10:30.114Z,18.23
2019-02-24T07:12:56.325Z,16.93
2019-02-24T07:15:22.603Z,17.70
2019-02-24T07:17:48.802Z,16.90
2019-02-24T07:20:15.354Z,17.60
2019-02-24T07:22:41.891Z,18.12
2019-02-24T07:25:08.108Z,18.02
2019-02-24T07:27:34.654Z,18.25
2019-02-24T07:30:00.875Z,17.07
2019-02-24T07:32:27.086Z,18.07
2019-02-24T07:34:53.321Z,18.50
2019-02-24T07:37:19.536Z,17.98
2019-02-24T07:39:46.147Z,17.80
2019-02-24T07:42:12.358Z,17.12
2019-02-24T07:44:38.606Z,17.62
2019-02-24T07:47:04.827Z,17.82
2019-02-24T07:49:31.454Z,18.55
2019-02-24T07:51:57.694Z,17.52
2019-02-24T07:54:25.238Z,17.62
2019-02-24T07:56:51.454Z,17.73
2019-02-24T07:59:17.751Z,17.17
2019-02-24T08:01:43.935Z,19.17
2019-02-24T08:04:10.224Z,17.85
2019-02-24T08:06:36.550Z,17.52
2019-02-24T08:09:03.459Z,16.82
2019-02-24T08:11:29.711Z,16.52
2019-02-24T08:13:55.964Z,16.15
2019-02-24T08:16:24.591Z,16.00
2019-02-24T08:18:52.039Z,15.78
2019-02-24T08:21:19.957Z,15.85
2019-02-24T08:23:46.668Z,15.63
2019-02-24T08:26:20.186Z,17.25
2019-02-24T08:28:46.424Z,15.43
2019-02-24T08:31:12.959Z,16.75
2019-02-24T08:33:39.172Z,16.02
2019-02-24T08:36:05.410Z,16.65
2019-02-24T08:38:31.766Z,15.32
2019-02-24T08:40:58.374Z,15.80
2019-02-24T08:43:24.774Z,15.23
2019-02-24T08:45:51.314Z,15.48
2019-02-24T08:48:19.184Z,15.90
2019-02-24T08:50:45.890Z,16.12
2019-02-24T08:53:12.243Z,18.07
2019-02-24T08:55:39.262Z,17.25
2019-02-24T08:58:05.635Z,17.12
2019-02-24T09:00:31.962Z,15.70
2019-02-24T09:02:58.423Z,17.40
2019-02-24T09:05:25.816Z,16.70
2019-02-24T09:07:52.145Z,16.30
2019-02-24T09:10:18.541Z,15.40
2019-02-24T09:12:44.766Z,15.63
2019-02-24T09:15:12.222Z,15.63
2019-02-24T09:17:38.560Z,15.30
2019-02-24T09:20:08.394Z,14.73
2019-02-24T09:22:34.619Z,14.60
2019-02-24T09:25:03.236Z,15.00
2019-02-24T09:27:28.975Z,14.95
2019-02-24T09:29:55.198Z,14.68
2019-02-24T09:32:21.820Z,15.30
2019-02-24T09:34:48.210Z,15.65
2019-02-24T09:37:14.687Z,14.25
2019-02-24T09:39:40.938Z,15.60
2019-02-24T09:42:07.464Z,15.40
2019-02-24T09:44:34.037Z,15.72
2019-02-24T09:47:00.264Z,16.35
2019-02-24T09:49:26.870Z,16.15
2019-02-24T09:51:53.200Z,14.98
2019-02-24T09:54:19.677Z,14.73
2019-02-24T09:56:45.919Z,15.70
2019-02-24T09:59:13.459Z,14.83
2019-02-24T10:01:40.069Z,15.03
2019-02-24T10:04:06.286Z,14.07
2019-02-24T10:06:32.814Z,14.20
2019-02-24T10:08:59.599Z,14.87
2019-02-24T10:11:26.194Z,14.65
2019-02-24T10:13:52.749Z,14.68
2019-02-24T10:16:19.068Z,15.10
2019-02-24T10:18:46.581Z,14.87
2019-02-24T10:21:12.937Z,14.87
2019-02-24T10:23:39.490Z,14.63
2019-02-24T10:26:05.749Z,15.13
2019-02-24T10:28:31.961Z,15.20
2019-02-24T10:30:58.496Z,17.07
2019-02-24T10:33:24.727Z,16.07
2019-02-24T10:35:51.246Z,16.35
2019-02-24T10:38:17.490Z,17.05
2019-02-24T10:40:43.771Z,17.27
2019-02-24T10:43:13.704Z,17.70
2019-02-24T10:45:39.966Z,19.97
2019-02-24T10:48:13.826Z,16.00
2019-02-24T10:50:34.336Z,19.10
2019-02-24T10:53:00.550Z,35.13
2019-02-24T10:55:26.856Z,20.72
2019-02-24T10:57:54.206Z,19.07
2019-02-24T11:00:20.917Z,18.23
2019-02-24T11:02:47.438Z,16.97
2019-02-24T11:05:15.012Z,16.37
2019-02-24T11:07:42.345Z,16.30
2019-02-24T11:10:09.007Z,17.70
2019-02-24T11:12:35.540Z,15.53
2019-02-24T11:15:02.382Z,16.27
2019-02-24T11:17:28.719Z,17.70
2019-02-24T11:19:54.979Z,16.77
2019-02-24T11:22:21.203Z,16.60
2019-02-24T11:24:47.528Z,17.13
2019-02-24T11:27:13.834Z,16.70
2019-02-24T11:29:40.059Z,16.10
2019-02-24T11:32:06.274Z,15.73
2019-02-24T11:34:35.522Z,16.73
2019-02-24T11:37:01.778Z,15.80
2019-02-24T11:39:28.047Z,16.37
2019-02-24T11:41:54.551Z,16.67
2019-02-24T11:44:20.762Z,15.70
2019-02-24T11:46:47.026Z,15.40
2019-02-24T11:49:13.630Z,16.37
2019-02-24T11:51:39.939Z,16.33
2019-02-24T11:54:06.273Z,16.10
2019-02-24T11:56:32.483Z,16.20
2019-02-24T11:58:58.732Z,15.70
2019-02-24T12:01:25.250Z,16.70
2019-02-24T12:03:51.518Z,15.00
2019-02-24T12:06:20.098Z,16.77
2019-02-24T12:08:46.662Z,16.90
2019-02-24T12:11:32.765Z,15.50
2019-02-24T12:13:59.002Z,17.10
2019-02-24T12:16:25.827Z,16.43
2019-02-24T12:18:52.064Z,15.40
2019-02-24T12:21:18.687Z,16.37
2019-02-24T12:23:45.307Z,15.43
2019-02-24T12:26:11.672Z,15.00
2019-02-24T12:28:37.938Z,16.27
2019-02-24T12:31:04.311Z,15.43
2019-02-24T12:33:30.514Z,15.33
2019-02-24T12:35:56.798Z,16.10
2019-02-24T12:38:23.036Z,16.43
2019-02-24T12:40:49.643Z,16.03
2019-02-24T12:43:15.935Z,17.10
2019-02-24T12:45:42.213Z,13.80
2019-02-24T12:48:08.552Z,14.93
2019-02-24T12:50:34.808Z,15.47
2019-02-24T12:53:01.375Z,14.73
2019-02-24T12:55:27.739Z,14.17
2019-02-24T12:57:53.975Z,13.47
2019-02-24T13:00:24.690Z,13.47
2019-02-24T13:02:51.020Z,13.13
2019-02-24T13:05:17.367Z,13.30
2019-02-24T13:07:43.595Z,13.40
2019-02-24T13:10:14.907Z,13.03
2019-02-24T13:12:41.194Z,12.10
2019-02-24T13:15:08.223Z,12.53
2019-02-24T13:17:34.830Z,12.90
2019-02-24T13:20:01.078Z,12.97
2019-02-24T13:22:27.691Z,12.53
2019-02-24T13:24:53.946Z,11.47
2019-02-24T13:27:20.681Z,13.43
2019-02-24T13:29:47.290Z,12.00
2019-02-24T13:32:15.125Z,13.13
2019-02-24T13:34:41.521Z,16.63
2019-02-24T13:37:08.030Z,12.30
2019-02-24T13:39:34.706Z,13.53
2019-02-24T13:42:00.946Z,12.33
2019-02-24T13:44:27.620Z,12.30
2019-02-24T13:46:54.170Z,12.30
2019-02-24T13:49:20.406Z,12.20
2019-02-24T13:51:46.671Z,11.50
2019-02-24T13:54:13.036Z,14.27
2019-02-24T13:56:39.600Z,13.13
2019-02-24T13:59:06.246Z,13.30
2019-02-24T14:01:32.512Z,14.27
2019-02-24T14:03:58.754Z,13.27
2019-02-24T14:06:25.446Z,13.10
2019-02-24T14:08:51.969Z,13.90
2019-02-24T14:11:18.221Z,14.40
2019-02-24T14:13:44.462Z,12.70
2019-02-24T14:16:10.665Z,12.93
2019-02-24T14:18:36.935Z,13.47
2019-02-24T14:21:03.733Z,11.97
2019-02-24T14:23:30.379Z,12.83
2019-02-24T14:25:56.608Z,12.70
2019-02-24T14:28:23.379Z,12.60
2019-02-24T14:30:50.192Z,12.97
2019-02-24T14:33:16.467Z,13.80
2019-02-24T14:35:42.692Z,13.73
2019-02-24T14:38:09.271Z,14.60
2019-02-24T14:40:35.820Z,13.00
2019-02-24T14:43:02.064Z,14.57
2019-02-24T14:45:28.314Z,12.97
2019-02-24T14:47:54.546Z,13.30
2019-02-24T14:50:21.129Z,14.07
2019-02-24T14:52:47.523Z,12.73
2019-02-24T14:55:14.930Z,13.67
2019-02-24T14:57:41.604Z,12.73
2019-02-24T15:00:16.707Z,13.80
2019-02-24T15:02:43.044Z,13.20
2019-02-24T15:05:11.698Z,13.87
2019-02-24T15:07:38.065Z,13.20
2019-02-24T15:10:08.483Z,13.30
2019-02-24T15:12:35.760Z,13.70
2019-02-24T15:15:03.067Z,13.70
2019-02-24T15:17:29.318Z,13.60
2019-02-24T15:19:55.855Z,14.20
2019-02-24T15:22:22.119Z,15.23
2019-02-24T15:24:48.335Z,13.50
2019-02-24T15:27:16.883Z,13.43
2019-02-24T15:29:43.148Z,12.70
2019-02-24T15:32:09.662Z,12.90
2019-02-24T15:34:36.198Z,13.03
2019-02-24T15:37:06.865Z,12.83
2019-02-24T15:39:33.562Z,13.37
2019-02-24T15:42:00.182Z,13.63
2019-02-24T15:44:27.232Z,11.63
2019-02-24T15:46:53.428Z,12.83
2019-02-24T15:49:19.722Z,11.87
2019-02-24T15:51:45.989Z,12.17
2019-02-24T15:54:12.902Z,12.33
2019-02-24T15:56:40.400Z,11.37
2019-02-24T15:59:06.602Z,11.77
2019-02-24T16:01:32.834Z,11.90
2019-02-24T16:03:59.101Z,11.47
2019-02-24T16:06:25.314Z,11.77
2019-02-24T16:08:51.885Z,10.70
2019-02-24T16:11:18.122Z,11.40
2019-02-24T16:13:45.662Z,11.23
2019-02-24T16:16:12.013Z,11.93
2019-02-24T16:18:38.538Z,10.43
2019-02-24T16:21:05.067Z,10.43
2019-02-24T16:23:31.600Z,12.03
2019-02-24T16:25:58.150Z,11.80
2019-02-24T16:28:24.414Z,12.07
2019-02-24T16:30:50.919Z,11.80
2019-02-24T16:33:17.851Z,11.93
2019-02-24T16:35:44.149Z,11.30
2019-02-24T16:38:10.379Z,11.33
2019-02-24T16:40:36.955Z,11.23
2019-02-24T16:43:03.683Z,12.07
2019-02-24T16:45:30.338Z,11.90
2019-02-24T16:47:56.906Z,12.50
2019-02-24T16:50:23.758Z,12.50
2019-02-24T16:52:50.034Z,12.40
2019-02-24T16:55:16.880Z,12.10
2019-02-24T16:57:43.234Z,13.10
2019-02-24T17:00:16.029Z,13.37
2019-02-24T17:02:42.211Z,12.50
2019-02-24T17:05:08.873Z,13.20
2019-02-24T17:07:35.402Z,13.50
2019-02-24T17:10:03.587Z,13.70
2019-02-24T17:12:29.827Z,12.67
2019-02-24T17:14:56.486Z,14.30
2019-02-24T17:17:22.998Z,13.83
2019-02-24T17:19:49.309Z,16.00
2019-02-24T17:22:15.866Z,20.50
2019-02-24T17:24:42.391Z,20.10
2019-02-24T17:27:08.631Z,23.97
2019-02-24T17:29:34.859Z,23.33
2019-02-24T17:32:01.121Z,20.00
2019-02-24T17:34:27.353Z,19.03
2019-02-24T17:36:53.584Z,18.23
2019-02-24T17:39:19.842Z,20.30
2019-02-24T17:41:46.067Z,31.17
2019-02-24T17:44:12.341Z,31.10
2019-02-24T17:46:38.562Z,31.03
2019-02-24T17:49:04.795Z,28.93
2019-02-24T17:51:31.056Z,28.47
2019-02-24T17:53:57.388Z,27.43
2019-02-24T17:56:23.976Z,23.50
2019-02-24T17:58:51.589Z,23.50
2019-02-24T18:01:18.379Z,21.70
2019-02-24T18:03:44.587Z,23.10
2019-02-24T18:06:10.816Z,20.53
2019-02-24T18:08:37.062Z,20.47
2019-02-24T18:11:03.578Z,21.57
2019-02-24T18:13:29.930Z,23.30
2019-02-24T18:15:56.151Z,21.90
2019-02-24T18:18:22.430Z,23.40
2019-02-24T18:20:48.631Z,21.33
2019-02-24T18:23:14.898Z,21.63
2019-02-24T18:25:41.096Z,21.20
2019-02-24T18:28:07.315Z,20.80
2019-02-24T18:30:33.591Z,20.27
2019-02-24T18:32:59.841Z,18.73
2019-02-24T18:35:26.046Z,19.13
2019-02-24T18:37:52.291Z,19.47
2019-02-24T18:40:18.524Z,19.60
2019-02-24T18:42:44.780Z,18.70
2019-02-24T18:45:14.718Z,16.50
2019-02-24T18:47:41.437Z,17.70
2019-02-24T18:50:10.836Z,16.80
2019-02-24T18:52:37.390Z,17.20
2019-02-24T18:55:06.845Z,17.50
2019-02-24T18:57:33.634Z,18.03
2019-02-24T19:00:00.310Z,16.87
2019-02-24T19:02:27.015Z,18.90
2019-02-24T19:04:53.341Z,17.03
2019-02-24T19:07:19.584Z,19.53
2019-02-24T19:09:45.814Z,19.80
2019-02-24T19:12:12.067Z,18.40
2019-02-24T19:14:38.289Z,18.13
2019-02-24T19:17:04.900Z,19.00
2019-02-24T19:19:31.129Z,19.20
2019-02-24T19:21:57.386Z,19.40
2019-02-24T19:24:23.651Z,19.77
2019-02-24T19:26:49.892Z,19.07
2019-02-24T19:29:16.132Z,18.20
2019-02-24T19:31:42.396Z,19.00
2019-02-24T19:34:08.623Z,18.37
2019-02-24T19:36:34.887Z,19.07
2019-02-24T19:39:01.127Z,18.70
2019-02-24T19:41:27.348Z,18.70
2019-02-24T19:43:53.590Z,19.20
2019-02-24T19:46:19.831Z,18.37
2019-02-24T19:48:46.087Z,18.80
2019-02-24T19:51:12.602Z,18.23
2019-02-24T19:53:39.138Z,20.47
2019-02-24T19:56:05.378Z,18.90
2019-02-24T19:58:31.605Z,20.00
2019-02-24T20:00:57.837Z,19.10
2019-02-24T20:03:24.051Z,18.27
2019-02-24T20:05:50.270Z,19.23
2019-02-24T20:08:16.826Z,18.90
2019-02-24T20:10:43.039Z,17.93
2019-02-24T20:13:09.283Z,19.83
2019-02-24T20:15:35.924Z,20.20
2019-02-24T20:18:02.163Z,18.63
2019-02-24T20:20:28.388Z,20.53
2019-02-24T20:22:54.630Z,20.87
2019-02-24T20:25:21.758Z,22.20
2019-02-24T20:27:48.414Z,20.63
2019-02-24T20:30:20.164Z,24.10
2019-02-24T20:32:46.385Z,25.10
2019-02-24T20:35:13.025Z,26.40
2019-02-24T20:37:39.243Z,24.73
2019-02-24T20:40:07.988Z,25.13
2019-02-24T20:42:34.199Z,26.67
2019-02-24T20:45:00.489Z,26.17
2019-02-24T20:47:26.737Z,24.70
2019-02-24T20:49:52.971Z,23.80
2019-02-24T20:52:19.207Z,25.00
2019-02-24T20:54:45.422Z,21.33
2019-02-24T20:57:11.658Z,21.73
2019-02-24T20:59:37.886Z,21.10
2019-02-24T21:02:04.509Z,22.20
2019-02-24T21:04:30.842Z,20.43
2019-02-24T21:06:57.085Z,19.57
2019-02-24T21:09:23.302Z,21.47
2019-02-24T21:11:49.533Z,20.17
2019-02-24T21:14:15.774Z,19.27
2019-02-24T21:16:42.046Z,20.50
2019-02-24T21:19:08.287Z,20.37
2019-02-24T21:21:34.594Z,19.20
2019-02-24T21:24:01.679Z,20.00
2019-02-24T21:26:27.903Z,21.93
2019-02-24T21:28:54.175Z,19.33
2019-02-24T21:31:20.572Z,20.80
2019-02-24T21:33:46.819Z,19.83
2019-02-24T21:36:13.470Z,20.40
2019-02-24T21:38:42.771Z,21.50
2019-02-24T21:41:09.324Z,19.77
2019-02-24T21:43:35.714Z,20.85
2019-02-24T21:46:02.029Z,20.43
2019-02-24T21:48:28.742Z,19.23
2019-02-24T21:50:56.066Z,20.13
2019-02-24T21:53:22.600Z,19.80
2019-02-24T21:55:49.044Z,19.13
2019-02-24T21:58:16.857Z,19.47
2019-02-24T22:00:43.264Z,20.13
2019-02-24T22:03:09.530Z,22.25
2019-02-24T22:05:35.929Z,22.00
2019-02-24T22:08:02.638Z,21.07
2019-02-24T22:10:30.921Z,20.40
2019-02-24T22:13:00.107Z,19.87
2019-02-24T22:15:26.513Z,19.07
2019-02-24T22:17:52.943Z,20.60
2019-02-24T22:20:19.530Z,19.75
2019-02-24T22:22:45.917Z,18.92
2019-02-24T22:25:13.615Z,19.98
2019-02-24T22:27:39.864Z,20.02
2019-02-24T22:30:15.163Z,22.22
2019-02-24T22:32:43.851Z,22.52
2019-02-24T22:35:10.350Z,24.47
2019-02-24T22:37:37.039Z,23.90
2019-02-24T22:40:09.876Z,25.12
2019-02-24T22:42:36.465Z,22.62
2019-02-24T22:45:05.227Z,22.25
2019-02-24T22:47:31.567Z,23.05
2019-02-24T22:49:57.882Z,20.95
2019-02-24T22:52:24.194Z,21.30
2019-02-24T22:54:50.562Z,21.00
2019-02-24T22:57:17.081Z,19.70
2019-02-24T22:59:43.735Z,19.20
2019-02-24T23:02:11.282Z,21.40
2019-02-24T23:04:37.509Z,18.77
2019-02-24T23:07:04.405Z,21.17
2019-02-24T23:09:32.420Z,20.65
2019-02-24T23:11:58.844Z,21.30
2019-02-24T23:14:25.277Z,20.25
2019-02-24T23:16:51.719Z,19.77
2019-02-24T23:19:18.013Z,18.90
2019-02-24T23:21:44.591Z,20.65
2019-02-24T23:24:10.996Z,21.00
2019-02-24T23:26:37.414Z,18.70
2019-02-24T23:29:03.983Z,18.15
2019-02-24T23:31:30.256Z,19.20
2019-02-24T23:33:56.535Z,19.73
2019-02-24T23:36:23.120Z,19.37
2019-02-24T23:38:49.658Z,19.23
2019-02-24T23:41:15.946Z,19.52
2019-02-24T23:43:42.569Z,18.52
2019-02-24T23:46:09.049Z,18.73
2019-02-24T23:48:35.713Z,19.07
2019-02-24T23:51:02.133Z,18.73
2019-02-24T23:53:28.393Z,18.95
2019-02-24T23:55:57.837Z,17.32
2019-02-24T23:58:25.838Z,18.82
